createdAt,value
2023-01-02T00:01:57.888Z,95528.00
2023-01-02T00:04:26.661Z,96058.00
2023-01-02T00:06:55.136Z,96044.00
2023-01-02T00:09:25.441Z,95835.00
2023-01-02T00:11:54.416Z,96023.00
2023-01-02T00:14:24.225Z,96013.00
2023-01-02T00:16:53.143Z,96003.00
2023-01-02T00:19:21.610Z,95872.00
2023-01-02T00:21:50.023Z,95999.00
2023-01-02T00:24:18.562Z,95759.00
2023-01-02T00:26:47.000Z,95873.00
2023-01-02T00:29:15.421Z,95630.00
2023-01-02T00:31:45.316Z,95999.00
2023-01-02T00:34:13.848Z,95863.00
2023-01-02T00:36:42.339Z,95875.00
2023-01-02T00:39:10.816Z,95882.00
2023-01-02T00:41:39.271Z,95973.00
2023-01-02T00:44:08.114Z,95979.00
2023-01-02T00:46:36.668Z,95970.00
2023-01-02T00:49:06.649Z,95738.00
2023-01-02T00:51:35.168Z,95339.00
2023-01-02T00:54:04.218Z,95689.00
2023-01-02T00:56:32.804Z,95965.00
2023-01-02T00:59:01.387Z,95973.00
2023-01-02T01:01:33.236Z,96078.00
2023-01-02T01:04:02.590Z,95975.00
2023-01-02T01:06:32.446Z,95963.00
2023-01-02T01:09:01.390Z,95962.00
2023-01-02T01:11:30.433Z,95966.00
2023-01-02T01:13:59.040Z,95816.00
2023-01-02T01:16:27.537Z,95957.00
2023-01-02T01:18:57.403Z,95954.00
2023-01-02T01:21:26.091Z,95666.00
2023-01-02T01:23:57.491Z,95958.00
2023-01-02T01:26:26.589Z,95984.00
2023-01-02T01:28:56.351Z,95966.00
2023-01-02T01:31:25.523Z,95785.00
2023-01-02T01:33:54.041Z,95800.00
2023-01-02T01:36:25.277Z,96044.00
2023-01-02T01:38:55.285Z,95828.00
2023-01-02T01:41:26.500Z,95974.00
2023-01-02T01:43:57.605Z,95766.00
2023-01-02T01:46:33.175Z,95986.00
2023-01-02T01:49:08.120Z,94921.00
2023-01-02T01:51:44.324Z,95971.00
2023-01-02T01:54:18.918Z,95835.00
2023-01-02T01:56:54.545Z,95832.00
2023-01-02T01:59:23.317Z,95828.00
2023-01-02T02:01:53.064Z,95891.00
2023-01-02T02:04:26.491Z,95966.00
2023-01-02T02:06:56.131Z,95684.00
2023-01-02T02:09:34.123Z,95643.00
2023-01-02T02:12:03.644Z,95364.00
2023-01-02T02:14:32.095Z,95957.00
2023-01-02T02:17:12.712Z,95964.00
2023-01-02T02:20:18.718Z,95960.00
2023-01-02T02:23:44.356Z,95867.00
2023-01-02T02:26:55.872Z,95946.00
2023-01-02T02:30:15.121Z,95985.00
2023-01-02T02:33:23.547Z,95870.00
2023-01-02T02:36:05.213Z,95809.00
2023-01-02T02:38:57.174Z,96003.00
2023-01-02T02:41:36.162Z,95949.00
2023-01-02T02:44:20.766Z,95807.00
2023-01-02T02:46:59.621Z,95983.00
2023-01-02T02:49:48.236Z,95190.00
2023-01-02T02:52:23.864Z,95938.00
2023-01-02T02:55:01.643Z,95947.00
2023-01-02T02:57:32.731Z,95772.00
2023-01-02T03:00:01.797Z,95936.00
2023-01-02T03:02:32.022Z,95625.00
2023-01-02T03:05:04.848Z,95953.00
2023-01-02T03:07:43.073Z,95578.00
2023-01-02T03:10:25.048Z,95920.00
2023-01-02T03:13:12.034Z,95935.00
2023-01-02T03:15:47.989Z,95938.00
2023-01-02T03:18:34.345Z,95776.00
2023-01-02T03:21:11.559Z,95961.00
2023-01-02T03:23:45.782Z,95918.00
2023-01-02T03:26:20.635Z,95925.00
2023-01-02T03:28:58.138Z,95932.00
2023-01-02T03:31:35.212Z,95238.00
2023-01-02T03:34:11.289Z,95920.00
2023-01-02T03:36:43.838Z,95698.00
2023-01-02T03:39:18.053Z,95632.00
2023-01-02T03:41:52.409Z,95394.00
2023-01-02T03:44:25.471Z,95494.00
2023-01-02T03:47:05.159Z,95925.00
2023-01-02T03:49:41.419Z,95916.00
2023-01-02T03:52:09.974Z,95956.00
2023-01-02T03:54:39.745Z,95899.00
2023-01-02T03:57:20.746Z,95916.00
2023-01-02T04:00:01.658Z,95911.00
2023-01-02T04:02:40.210Z,95906.00
2023-01-02T04:05:19.687Z,95899.00
2023-01-02T04:07:56.375Z,95906.00
2023-01-02T04:10:27.705Z,95743.00
2023-01-02T04:13:03.056Z,95857.00
2023-01-02T04:15:36.513Z,95627.00
2023-01-02T04:18:11.752Z,95765.00
2023-01-02T04:20:52.559Z,95605.00
2023-01-02T04:23:30.972Z,95908.00
2023-01-02T04:26:07.678Z,95639.00
2023-01-02T04:28:37.319Z,95768.00
2023-01-02T04:31:14.454Z,95161.00
2023-01-02T04:33:47.044Z,95919.00
2023-01-02T04:36:17.832Z,95936.00
2023-01-02T04:38:47.690Z,95921.00
2023-01-02T04:41:26.999Z,95914.00
2023-01-02T04:43:56.132Z,95760.00
2023-01-02T04:46:26.559Z,95948.00
2023-01-02T04:48:55.540Z,95723.00
2023-01-02T04:51:26.223Z,95925.00
2023-01-02T04:53:55.566Z,95644.00
2023-01-02T04:56:24.411Z,95749.00
2023-01-02T04:58:53.691Z,95662.00
2023-01-02T05:01:23.359Z,95749.00
2023-01-02T05:03:53.395Z,95515.00
2023-01-02T05:06:22.160Z,95958.00
2023-01-02T05:08:52.016Z,95902.00
2023-01-02T05:11:22.258Z,95910.00
2023-01-02T05:13:50.747Z,95374.00
2023-01-02T05:16:19.240Z,95724.00
2023-01-02T05:18:47.724Z,95916.00
2023-01-02T05:21:30.237Z,95618.00
2023-01-02T05:24:02.818Z,95559.00
2023-01-02T05:26:33.133Z,95915.00
2023-01-02T05:29:02.492Z,95663.00
2023-01-02T05:31:31.450Z,95555.00
2023-01-02T05:34:00.990Z,95954.00
2023-01-02T05:36:29.503Z,95772.00
2023-01-02T05:38:59.279Z,95827.00
2023-01-02T05:41:27.708Z,95784.00
2023-01-02T05:43:56.581Z,95916.00
2023-01-02T05:46:25.107Z,95912.00
2023-01-02T05:48:53.590Z,95300.00
2023-01-02T05:51:22.015Z,95835.00
2023-01-02T05:53:50.955Z,95916.00
2023-01-02T05:56:22.137Z,95750.00
2023-01-02T05:58:51.667Z,95916.00
2023-01-02T06:01:22.244Z,95664.00
2023-01-02T06:03:52.950Z,95915.00
2023-01-02T06:06:23.566Z,95911.00
2023-01-02T06:08:52.498Z,95915.00
2023-01-02T06:11:22.460Z,95916.00
2023-01-02T06:13:50.942Z,95865.00
2023-01-02T06:16:19.456Z,95641.00
2023-01-02T06:18:49.373Z,95366.00
2023-01-02T06:21:21.243Z,95916.00
2023-01-02T06:23:54.729Z,95909.00
2023-01-02T06:26:32.795Z,95912.00
2023-01-02T06:29:03.856Z,95818.00
2023-01-02T06:31:33.620Z,95748.00
2023-01-02T06:34:04.550Z,95956.00
2023-01-02T06:36:35.556Z,95965.00
2023-01-02T06:39:04.174Z,95925.00
2023-01-02T06:41:34.282Z,95580.00
2023-01-02T06:44:02.716Z,95931.00
2023-01-02T06:46:31.215Z,95667.00
2023-01-02T06:48:59.716Z,95753.00
2023-01-02T06:51:28.159Z,95945.00
2023-01-02T06:53:56.905Z,95844.00
2023-01-02T06:56:25.313Z,95708.00
2023-01-02T06:58:55.227Z,95898.00
2023-01-02T07:01:24.455Z,95943.00
2023-01-02T07:03:52.977Z,95807.00
2023-01-02T07:06:23.626Z,95979.00
2023-01-02T07:08:53.226Z,95775.00
2023-01-02T07:11:24.688Z,95938.00
2023-01-02T07:13:56.068Z,95717.00
2023-01-02T07:16:25.832Z,95948.00
2023-01-02T07:18:55.039Z,95732.00
2023-01-02T07:21:24.074Z,95940.00
2023-01-02T07:23:52.538Z,95636.00
2023-01-02T07:26:23.369Z,95938.00
2023-01-02T07:28:51.893Z,95688.00
2023-01-02T07:31:22.679Z,95946.00
2023-01-02T07:33:51.408Z,95941.00
2023-01-02T07:36:22.249Z,95940.00
2023-01-02T07:38:53.074Z,95744.00
2023-01-02T07:41:25.226Z,95857.00
2023-01-02T07:43:56.393Z,95841.00
2023-01-02T07:46:27.102Z,95944.00
2023-01-02T07:48:55.611Z,96011.00
2023-01-02T07:51:27.295Z,95951.00
2023-01-02T07:53:56.333Z,95434.00
2023-01-02T07:56:25.185Z,95953.00
2023-01-02T07:58:58.721Z,95286.00
2023-01-02T08:01:28.804Z,95951.00
2023-01-02T08:03:57.572Z,95846.00
2023-01-02T08:06:26.168Z,95894.00
2023-01-02T08:08:55.075Z,95727.00
2023-01-02T08:11:24.407Z,95696.00
2023-01-02T08:13:52.968Z,95967.00
2023-01-02T08:16:23.326Z,95929.00
2023-01-02T08:18:55.983Z,95663.00
2023-01-02T08:21:24.793Z,95820.00
2023-01-02T08:23:53.723Z,95609.00
2023-01-02T08:26:23.356Z,95970.00
2023-01-02T08:28:51.974Z,95974.00
2023-01-02T08:31:23.308Z,96009.00
2023-01-02T08:33:53.239Z,95723.00
2023-01-02T08:36:21.927Z,95758.00
2023-01-02T08:38:50.349Z,95746.00
2023-01-02T08:41:32.899Z,95982.00
2023-01-02T08:44:02.002Z,95864.00
2023-01-02T08:46:35.566Z,96033.00
2023-01-02T08:49:10.371Z,95719.00
2023-01-02T08:51:38.969Z,95393.00
2023-01-02T08:54:07.497Z,95982.00
2023-01-02T08:56:37.770Z,95995.00
2023-01-02T08:59:08.751Z,95977.00
2023-01-02T09:01:39.340Z,96032.00
2023-01-02T09:04:12.860Z,95550.00
2023-01-02T09:06:43.432Z,96014.00
2023-01-02T09:09:13.639Z,95716.00
2023-01-02T09:11:46.505Z,96051.00
2023-01-02T09:14:14.999Z,95996.00
2023-01-02T09:16:43.703Z,95619.00
2023-01-02T09:19:13.602Z,96029.00
2023-01-02T09:21:42.104Z,95847.00
2023-01-02T09:24:11.465Z,95775.00
2023-01-02T09:26:41.955Z,95780.00
2023-01-02T09:29:11.640Z,96003.00
2023-01-02T09:31:41.068Z,96004.00
2023-01-02T09:34:09.807Z,95446.00
2023-01-02T09:36:40.042Z,95999.00
2023-01-02T09:39:08.521Z,96008.00
2023-01-02T09:41:40.398Z,96060.00
2023-01-02T09:44:17.352Z,96009.00
2023-01-02T09:46:52.165Z,95892.00
2023-01-02T09:49:25.569Z,95306.00
2023-01-02T09:51:55.600Z,96014.00
2023-01-02T09:54:27.775Z,96005.00
2023-01-02T09:57:23.940Z,96032.00
2023-01-02T10:00:01.138Z,96044.00
2023-01-02T10:02:48.951Z,96032.00
2023-01-02T10:05:50.661Z,96074.00
2023-01-02T10:08:34.782Z,95926.00
2023-01-02T10:11:24.712Z,96006.00
2023-01-02T10:16:54.520Z,96010.00
2023-01-02T10:19:34.317Z,96013.00
2023-01-02T10:22:05.381Z,96015.00
2023-01-02T10:24:44.784Z,96060.00
2023-01-02T10:27:19.309Z,96025.00
2023-01-02T10:29:57.398Z,95817.00
2023-01-02T10:32:28.400Z,96017.00
2023-01-02T10:35:15.943Z,95774.00
2023-01-02T10:37:45.509Z,95372.00
2023-01-02T10:40:16.221Z,95925.00
2023-01-02T10:42:46.395Z,96005.00
2023-01-02T10:45:18.431Z,95907.00
2023-01-02T10:47:47.925Z,96008.00
2023-01-02T10:50:23.171Z,96012.00
2023-01-02T10:52:54.866Z,96005.00
2023-01-02T10:55:39.814Z,96000.00
2023-01-02T10:58:22.240Z,95769.00
2023-01-02T11:00:53.216Z,95347.00
2023-01-02T11:03:26.393Z,95827.00
2023-01-02T11:06:26.919Z,96039.00
2023-01-02T11:09:03.173Z,96004.00
2023-01-02T11:11:35.903Z,96032.00
2023-01-02T11:14:11.244Z,96024.00
2023-01-02T11:16:42.881Z,95883.00
2023-01-02T11:19:29.646Z,95917.00
2023-01-02T11:21:59.869Z,95614.00
2023-01-02T11:24:29.969Z,96005.00
2023-01-02T11:27:04.351Z,95760.00
2023-01-02T11:29:39.264Z,95925.00
2023-01-02T11:32:22.954Z,95742.00
2023-01-02T11:34:59.942Z,96007.00
2023-01-02T11:37:32.224Z,95844.00
2023-01-02T11:40:03.554Z,95835.00
2023-01-02T11:42:56.949Z,96025.00
2023-01-02T11:45:26.569Z,95946.00
2023-01-02T11:48:01.927Z,95918.00
2023-01-02T11:50:33.313Z,95999.00
2023-01-02T11:53:09.043Z,95140.00
2023-01-02T11:55:45.808Z,95908.00
2023-01-02T11:58:28.172Z,95981.00
2023-01-02T12:01:07.039Z,95974.00
2023-01-02T12:03:35.914Z,95987.00
2023-01-02T12:06:17.805Z,96009.00
2023-01-02T12:09:05.309Z,95922.00
2023-01-02T12:11:59.973Z,95830.00
2023-01-02T12:14:55.147Z,95905.00
2023-01-02T12:17:34.273Z,95951.00
2023-01-02T12:20:19.297Z,95888.00
2023-01-02T12:23:19.368Z,96071.00
2023-01-02T12:26:10.145Z,95780.00
2023-01-02T12:29:47.743Z,95825.00
2023-01-02T12:33:08.241Z,95696.00
2023-01-02T12:36:20.252Z,96026.00
2023-01-02T12:39:22.272Z,95949.00
2023-01-02T12:42:06.377Z,96014.00
2023-01-02T12:44:52.658Z,96017.00
2023-01-02T12:47:45.396Z,96020.00
2023-01-02T12:50:49.387Z,95812.00
2023-01-02T12:53:46.175Z,95353.00
2023-01-02T12:56:23.454Z,96015.00
2023-01-02T12:59:12.743Z,95982.00
2023-01-02T13:01:50.679Z,95954.00
2023-01-02T13:04:27.925Z,96020.00
2023-01-02T13:07:03.017Z,96076.00
2023-01-02T13:09:36.875Z,95900.00
2023-01-02T13:12:12.021Z,95906.00
2023-01-02T13:14:45.798Z,96038.00
2023-01-02T13:17:51.702Z,96080.00
2023-01-02T13:20:35.313Z,95925.00
2023-01-02T13:23:23.814Z,95871.00
2023-01-02T13:25:56.552Z,96036.00
2023-01-02T13:28:25.142Z,95949.00
2023-01-02T13:33:55.811Z,96028.00
2023-01-02T13:36:30.936Z,95657.00
2023-01-02T13:39:04.446Z,95831.00
2023-01-02T13:41:58.890Z,96020.00
2023-01-02T13:44:36.206Z,96027.00
2023-01-02T13:47:20.922Z,95928.00
2023-01-02T13:50:04.078Z,95832.00
2023-01-02T13:52:34.047Z,96030.00
2023-01-02T13:55:34.371Z,95799.00
2023-01-02T13:58:42.978Z,96045.00
2023-01-02T14:02:02.258Z,95838.00
2023-01-02T14:04:41.498Z,96043.00
2023-01-02T14:07:49.283Z,96056.00
2023-01-02T14:10:30.997Z,95687.00
2023-01-02T14:13:24.026Z,96067.00
2023-01-02T14:16:31.117Z,95991.00
2023-01-02T14:19:23.535Z,96066.00
2023-01-02T14:22:04.118Z,96073.00
2023-01-02T14:24:39.937Z,95598.00
2023-01-02T14:27:23.553Z,95696.00
2023-01-02T14:29:56.454Z,95823.00
2023-01-02T14:32:37.314Z,95953.00
2023-01-02T14:35:23.010Z,95761.00
2023-01-02T14:37:55.911Z,96083.00
2023-01-02T14:40:41.112Z,96126.00
2023-01-02T14:43:31.028Z,95889.00
2023-01-02T14:46:14.404Z,96099.00
2023-01-02T14:48:55.547Z,95943.00
2023-01-02T14:51:36.879Z,95701.00
2023-01-02T14:54:15.871Z,96107.00
2023-01-02T14:56:51.029Z,96110.00
2023-01-02T14:59:28.126Z,95932.00
2023-01-02T15:02:02.565Z,96121.00
2023-01-02T15:04:40.085Z,96126.00
2023-01-02T15:07:25.142Z,95474.00
2023-01-02T15:09:59.604Z,95946.00
2023-01-02T15:13:05.624Z,95885.00
2023-01-02T15:15:41.911Z,96139.00
2023-01-02T15:18:21.544Z,96142.00
2023-01-02T15:20:52.042Z,96132.00
2023-01-02T15:23:24.962Z,96147.00
2023-01-02T15:26:31.435Z,96188.00
2023-01-02T15:28:44.940Z,96169.00
2023-01-02T15:31:16.532Z,96156.00
2023-01-02T15:33:53.119Z,96016.00
2023-01-02T15:36:45.664Z,96170.00
2023-01-02T15:39:20.794Z,96173.00
2023-01-02T15:41:53.622Z,96219.00
2023-01-02T15:44:43.953Z,96177.00
2023-01-02T15:47:14.287Z,96214.00
2023-01-02T15:49:45.943Z,96180.00
2023-01-02T15:52:24.368Z,96190.00
2023-01-02T15:54:54.414Z,96106.00
2023-01-02T15:57:28.803Z,96269.00
2023-01-02T15:59:59.386Z,96265.00
2023-01-02T16:02:42.094Z,96099.00
2023-01-02T16:05:15.145Z,96198.00
2023-01-02T16:07:50.522Z,96220.00
2023-01-02T16:10:24.099Z,96092.00
2023-01-02T16:12:56.051Z,96207.00
2023-01-02T16:15:32.838Z,96214.00
2023-01-02T16:18:02.235Z,96231.00
2023-01-02T16:20:31.328Z,96238.00
2023-01-02T16:23:04.434Z,96242.00
2023-01-02T16:25:36.877Z,96242.00
2023-01-02T16:28:35.854Z,96292.00
2023-01-02T16:31:13.003Z,96282.00
2023-01-02T16:33:42.882Z,96159.00
2023-01-02T16:36:21.834Z,96257.00
2023-01-02T16:38:55.997Z,96260.00
2023-01-02T16:42:14.165Z,96261.00
2023-01-02T16:44:42.571Z,95981.00
2023-01-02T16:47:12.536Z,96279.00
2023-01-02T16:49:41.011Z,96276.00
2023-01-02T16:52:11.098Z,96103.00
2023-01-02T16:54:39.550Z,96280.00
2023-01-02T16:57:14.342Z,95987.00
2023-01-02T16:59:42.857Z,96014.00
2023-01-02T17:02:15.982Z,96219.00
2023-01-02T17:04:44.457Z,96017.00
2023-01-02T17:07:18.541Z,96263.00
2023-01-02T17:09:50.259Z,96265.00
2023-01-02T17:12:18.712Z,96320.00
2023-01-02T17:14:47.077Z,96274.00
2023-01-02T17:17:16.925Z,96280.00
2023-01-02T17:19:45.409Z,96281.00
2023-01-02T17:22:13.871Z,96201.00
2023-01-02T17:24:42.814Z,96030.00
2023-01-02T17:27:11.245Z,96299.00
2023-01-02T17:29:39.683Z,96163.00
2023-01-02T17:32:08.217Z,96158.00
2023-01-02T17:34:38.186Z,96048.00
2023-01-02T17:37:06.653Z,96038.00
2023-01-02T17:39:35.127Z,96272.00
2023-01-02T17:42:03.594Z,96108.00
2023-01-02T17:44:32.189Z,96203.00
2023-01-02T17:47:30.698Z,96043.00
2023-01-02T17:49:50.900Z,96213.00
2023-01-02T17:52:19.483Z,96350.00
2023-01-02T17:54:52.833Z,96245.00
2023-01-02T17:57:25.717Z,96073.00
2023-01-02T17:59:54.217Z,96278.00
2023-01-02T18:02:23.666Z,96338.00
2023-01-02T18:04:55.481Z,96329.00
2023-01-02T18:07:24.206Z,96331.00
2023-01-02T18:10:09.243Z,96351.00
2023-01-02T18:12:39.661Z,96323.00
2023-01-02T18:15:14.297Z,96389.00
2023-01-02T18:17:43.179Z,96147.00
2023-01-02T18:20:17.183Z,96256.00
2023-01-02T18:22:49.721Z,96389.00
2023-01-02T18:25:24.421Z,96356.00
2023-01-02T18:28:01.537Z,96359.00
2023-01-02T18:30:30.110Z,96214.00
2023-01-02T18:33:08.366Z,96357.00
2023-01-02T18:35:56.628Z,96040.00
2023-01-02T18:38:31.889Z,96072.00
2023-01-02T18:41:00.676Z,96375.00
2023-01-02T18:43:35.633Z,96199.00
2023-01-02T18:46:16.690Z,96373.00
2023-01-02T18:48:45.283Z,96378.00
2023-01-02T18:51:24.549Z,96371.00
2023-01-02T18:53:56.977Z,96310.00
2023-01-02T18:56:28.148Z,96388.00
2023-01-02T18:59:04.037Z,96215.00
2023-01-02T19:01:37.713Z,96323.00
2023-01-02T19:04:27.206Z,96188.00
2023-01-02T19:07:02.532Z,96388.00
2023-01-02T19:09:34.214Z,96361.00
2023-01-02T19:12:38.327Z,96445.00
2023-01-02T19:15:40.770Z,96374.00
2023-01-02T19:18:35.931Z,95866.00
2023-01-02T19:21:19.867Z,95681.00
2023-01-02T19:23:58.074Z,96306.00
2023-01-02T19:26:34.431Z,96422.00
2023-01-02T19:29:17.234Z,96426.00
2023-01-02T19:31:50.571Z,96364.00
2023-01-02T19:34:29.377Z,96426.00
2023-01-02T19:37:35.632Z,96422.00
2023-01-02T19:40:14.627Z,96438.00
2023-01-02T19:42:47.140Z,96179.00
2023-01-02T19:45:18.419Z,96426.00
2023-01-02T19:47:48.167Z,96476.00
2023-01-02T19:50:20.746Z,96466.00
2023-01-02T19:52:49.507Z,96265.00
2023-01-02T19:55:20.182Z,96433.00
2023-01-02T19:57:49.363Z,96497.00
2023-01-02T20:00:20.391Z,96438.00
2023-01-02T20:02:51.425Z,96447.00
2023-01-02T20:05:22.960Z,96485.00
2023-01-02T20:07:53.918Z,96316.00
2023-01-02T20:10:24.495Z,95626.00
2023-01-02T20:12:53.404Z,96260.00
2023-01-02T20:15:25.932Z,96422.00
2023-01-02T20:17:55.489Z,96484.00
2023-01-02T20:20:26.845Z,96471.00
2023-01-02T20:22:55.556Z,96561.00
2023-01-02T20:25:26.825Z,96546.00
2023-01-02T20:27:57.414Z,96266.00
2023-01-02T20:30:26.608Z,96374.00
2023-01-02T20:32:55.970Z,96326.00
2023-01-02T20:35:24.683Z,96503.00
2023-01-02T20:37:53.680Z,96502.00
2023-01-02T20:40:22.411Z,96504.00
2023-01-02T20:42:52.503Z,96503.00
2023-01-02T20:45:21.069Z,96580.00
2023-01-02T20:47:49.643Z,96535.00
2023-01-02T20:50:18.415Z,96417.00
2023-01-02T20:52:48.389Z,96514.00
2023-01-02T20:55:19.901Z,96245.00
2023-01-02T20:57:51.582Z,96519.00
2023-01-02T21:00:23.416Z,96394.00
2023-01-02T21:02:52.475Z,96535.00
2023-01-02T21:05:21.177Z,96572.00
2023-01-02T21:07:49.837Z,96549.00
2023-01-02T21:10:18.905Z,96582.00
2023-01-02T21:13:04.971Z,96538.00
2023-01-02T21:15:45.344Z,96544.00
2023-01-02T21:18:17.495Z,96030.00
2023-01-02T21:20:48.663Z,96612.00
2023-01-02T21:23:18.160Z,96566.00
2023-01-02T21:25:47.579Z,96583.00
2023-01-02T21:28:19.970Z,96573.00
2023-01-02T21:30:50.980Z,96413.00
2023-01-02T21:33:22.916Z,96597.00
2023-01-02T21:35:53.667Z,96330.00
2023-01-02T21:38:24.416Z,96580.00
2023-01-02T21:40:53.369Z,96519.00
2023-01-02T21:43:23.047Z,96577.00
2023-01-02T21:45:53.267Z,96639.00
2023-01-02T21:48:22.412Z,96258.00
2023-01-02T21:50:51.031Z,96532.00
2023-01-02T21:53:21.726Z,96474.00
2023-01-02T21:55:50.518Z,96212.00
2023-01-02T21:58:19.506Z,96068.00
2023-01-02T22:00:48.228Z,96630.00
2023-01-02T22:03:18.750Z,95874.00
2023-01-02T22:05:50.992Z,96634.00
2023-01-02T22:08:19.672Z,96627.00
2023-01-02T22:10:49.020Z,96645.00
2023-01-02T22:13:19.871Z,96362.00
2023-01-02T22:15:48.567Z,96496.00
2023-01-02T22:18:18.566Z,96311.00
2023-01-02T22:20:47.085Z,96673.00
2023-01-02T22:23:15.563Z,96573.00
2023-01-02T22:25:44.147Z,96408.00
2023-01-02T22:28:12.730Z,96553.00
2023-01-02T22:30:41.317Z,96683.00
2023-01-02T22:33:11.507Z,96398.00
2023-01-02T22:35:41.559Z,96467.00
2023-01-02T22:38:10.288Z,96405.00
2023-01-02T22:40:39.174Z,96429.00
2023-01-02T22:43:11.313Z,96730.00
2023-01-02T22:45:45.255Z,96501.00
2023-01-02T22:48:23.292Z,96800.00
2023-01-02T22:51:02.293Z,96608.00
2023-01-02T22:53:33.630Z,96720.00
2023-01-02T22:56:07.942Z,95820.00
2023-01-02T22:58:36.670Z,96455.00
2023-01-02T23:01:14.263Z,96739.00
2023-01-02T23:03:45.458Z,96750.00
2023-01-02T23:06:22.167Z,96679.00
2023-01-02T23:08:53.775Z,96580.00
2023-01-02T23:11:24.590Z,96681.00
2023-01-02T23:13:56.780Z,96366.00
2023-01-02T23:16:42.914Z,96681.00
2023-01-02T23:19:19.190Z,96502.00
2023-01-02T23:21:51.392Z,96695.00
2023-01-02T23:24:23.391Z,96497.00
2023-01-02T23:26:55.097Z,96685.00
2023-01-02T23:29:25.881Z,96656.00
2023-01-02T23:31:54.838Z,96468.00
2023-01-02T23:34:28.799Z,96703.00
2023-01-02T23:37:01.117Z,96556.00
2023-01-02T23:39:32.359Z,96463.00
2023-01-02T23:42:01.192Z,96703.00
2023-01-02T23:44:30.468Z,96678.00
2023-01-02T23:47:01.796Z,96720.00
2023-01-02T23:49:34.394Z,96679.00
2023-01-02T23:52:04.871Z,96251.00
2023-01-02T23:54:34.060Z,96601.00
2023-01-02T23:57:02.904Z,96575.00
2023-01-02T23:59:31.793Z,96711.00
